Las Americas, República Dominicana

9:42 AM AST en Septiembre 18, 2014 (GMT -0400)
Las Americas International | Change Station
CLOSE
Current Station
Aeropuerto
Location: Las Americas,
Altura: 59 ft
Estaciones meteorológicas cercanas

Alt 59 ft 18.43 °N, 69.67 °W | Updated 42 minutes ago

Scattered Clouds
Nubes dispersas
81 ° F
Sensación térmica 86 ° F
N
7
Viento Variable Viento desde ENE

Hoy
Alta -- | Baja -- ° F
--% Posibilidad de precipitaciones
Ayer
Alta -- | Baja -- ° F
Precip. -- pul
6:26 AM 6:38 PM
Creciente menguante, 27% visible
Presión 29.95 pul
Visibilidad 6.2 Millas
Nubes Baja 1800 ft
Nubes dispersas 30000 ft
Índice de calor 86 ° F
Punto de rocío 75 ° F
Humedad 84%
Precipitaciones 0.00 pul
Espesor de la nieve No disponible.
UV 5 de una escala de 12
Polen No disponible.
Calidad del aire No disponible.
Flu Activity No disponible.
METAR MDSD 181300Z 06006KT 9999 FEW018 SCT300 27/24 Q1014

More Conditions Fewer Conditions

Presión 29.95 pul
Visibilidad 6.2 Millas
Nubes Baja 1800 ft
Nubes dispersas 30000 ft
Índice de calor 86 ° F
Punto de rocío 75 ° F
Humedad 84%
Precipitaciones 0.00 pul
Espesor de la nieve No disponible.
UV 5 de una escala de 12
Polen No disponible.
Calidad del aire No disponible.
Flu Activity No disponible.
METAR MDSD 181300Z 06006KT 9999 FEW018 SCT300 27/24 Q1014

More Conditions Fewer Conditions

10-Day Weather Forecast

Almanac

Astronomía

Sep. 18, 2014 Salida Puesta
Hora real 6:26 AM AST 6:38 PM AST
Crepúsculo civil 6:05 AM AST 7:00 PM AST
Crepúsculo náutico 5:39 AM AST 7:25 PM AST
Crepúsculo astronómico 5:14 AM AST 7:51 PM AST
Luna 1:48 AM AST 2:57 PM AST
Horas de luz 12h 55m
Horas de luz
12h 11m
Tomorrow will be 1m 1s shorter.
Creciente menguante, 27% of the Moon is Illuminated
Hoy
Creciente menguante
Sep 24
Nueva
Oct 1
Cuarto creciente
Oct 8
Luna llena
Oct 15
Cuarto menguante

Extremos de ayer

Máximos del país Bajas del país

Community

WunderPhotos

Upload Photos

1,754,347 ¡fotos cargadas!

Nearby

Calidad del aire

Not available.

Grosos de nieve

Not available.

Actividad de terremotos

Ciudad Distance Mag. Tiempo y dato
No hay informes recientes de la actividad sísmica.
Magnitud mínima muestra es 2,5.

Temperaturas de aguas costeras

Lugar Temperatura
Sin partes meteorológicos de las estaciones

Estaciones meteorológicas cercanas